Weather at Laughlin Bullhead International Airport

Public forecast

Using degrees Fahrenheit for public forecast. Weather courtesy of forecast.io.

Current aviation weather report (METAR) for Laughlin Bullhead International Airport

Retrieved 2021/07/24 23:51 UTC (11 minutes ago):

KIFP 242351Z 19011KT 10SM SCT140 38/16 A2983

Aviation forecast (TAF) for Laughlin Bullhead International Airport

Retrieved 2021-07-25 00:22 UTC (0 seconds ago):

TAF KIFP 242320Z 2500/2524 19011KT P6SM SCT150 BKN250 FM250300 05015KT P6SM VCTS SCT120CB BKN250 TEMPO 2503/2505 04020G30KT -TSRA FM250700 15008KT P6SM BKN150 FM251600 18011KT P6SM BKN150